Bruceton Mills, West Virginia
Current Conditions -  °F | °C
As of 7:33 AM on Thursday 23 Oct 2014 (Local Time) from KMGW Reporting Station
Overcast Overcast  
Wind Chill: 45°   Ceiling: 1400
Heat Index: 48°   Visibility: 10mi
Dew Point: 40°   Wind: 7mph
Humidity: 74%   Direction: 330°NNW
Pressure: 30.15"   Gusts: 16mph
Location:  39.66°N, 79.64°W
Report Text: KMGW 231133Z 33006G14KT 10SM OVC014 09/04 A3015 RMK AO2 T00890044
Loading
Personal Weather Stations






























Interactive Weather Map
Tropical Storm Tracking
New forecast layout! Learn more

10-Day Weather Forecast

Advertisements
Track Severe Weather on mobile